sensor_id;sensor_type;location;lat;lon;timestamp;temperature;humidity
29431;DHT22;16404;49.902;10.074;2022-12-29T00:00:38;11.20;64.10
29431;DHT22;16404;49.902;10.074;2022-12-29T00:03:22;11.20;64.10
29431;DHT22;16404;49.902;10.074;2022-12-29T00:06:07;11.20;64.70
29431;DHT22;16404;49.902;10.074;2022-12-29T00:08:52;11.20;64.60
29431;DHT22;16404;49.902;10.074;2022-12-29T00:11:36;11.10;63.80
29431;DHT22;16404;49.902;10.074;2022-12-29T00:14:21;11.10;63.90
29431;DHT22;16404;49.902;10.074;2022-12-29T00:17:24;11.10;64.00
29431;DHT22;16404;49.902;10.074;2022-12-29T00:20:09;11.10;64.20
29431;DHT22;16404;49.902;10.074;2022-12-29T00:23:12;11.00;64.20
29431;DHT22;16404;49.902;10.074;2022-12-29T00:26:16;11.10;64.40
29431;DHT22;16404;49.902;10.074;2022-12-29T00:29:20;11.10;64.40
29431;DHT22;16404;49.902;10.074;2022-12-29T00:32:23;11.10;64.30
29431;DHT22;16404;49.902;10.074;2022-12-29T00:35:39;11.20;64.20
29431;DHT22;16404;49.902;10.074;2022-12-29T00:38:26;11.30;64.20
29431;DHT22;16404;49.902;10.074;2022-12-29T00:41:29;11.30;64.10
29431;DHT22;16404;49.902;10.074;2022-12-29T00:44:32;11.30;64.10
29431;DHT22;16404;49.902;10.074;2022-12-29T00:47:17;11.30;64.20
29431;DHT22;16404;49.902;10.074;2022-12-29T00:50:02;11.30;64.30
29431;DHT22;16404;49.902;10.074;2022-12-29T00:52:46;11.40;64.30
29431;DHT22;16404;49.902;10.074;2022-12-29T00:55:31;11.50;64.30
29431;DHT22;16404;49.902;10.074;2022-12-29T00:58:16;11.50;64.10
29431;DHT22;16404;49.902;10.074;2022-12-29T01:01:05;11.60;64.00
29431;DHT22;16404;49.902;10.074;2022-12-29T01:03:50;11.60;63.90
29431;DHT22;16404;49.902;10.074;2022-12-29T01:06:36;11.70;63.80
29431;DHT22;16404;49.902;10.074;2022-12-29T01:09:21;11.60;63.70
29431;DHT22;16404;49.902;10.074;2022-12-29T01:12:25;11.70;63.60
29431;DHT22;16404;49.902;10.074;2022-12-29T01:15:27;11.70;63.50
29431;DHT22;16404;49.902;10.074;2022-12-29T01:18:11;11.80;63.40
29431;DHT22;16404;49.902;10.074;2022-12-29T01:21:00;11.80;63.30
29431;DHT22;16404;49.902;10.074;2022-12-29T01:23:45;11.70;63.40
29431;DHT22;16404;49.902;10.074;2022-12-29T01:26:29;11.70;63.40
29431;DHT22;16404;49.902;10.074;2022-12-29T01:29:14;11.80;63.30
29431;DHT22;16404;49.902;10.074;2022-12-29T01:31:59;11.80;63.30
29431;DHT22;16404;49.902;10.074;2022-12-29T01:34:45;11.80;63.20
29431;DHT22;16404;49.902;10.074;2022-12-29T01:37:29;11.90;63.30
29431;DHT22;16404;49.902;10.074;2022-12-29T01:40:14;11.90;63.30
29431;DHT22;16404;49.902;10.074;2022-12-29T01:42:59;11.90;63.10
29431;DHT22;16404;49.902;10.074;2022-12-29T01:45:48;11.90;63.00
29431;DHT22;16404;49.902;10.074;2022-12-29T01:48:34;12.00;63.10
29431;DHT22;16404;49.902;10.074;2022-12-29T01:51:21;12.00;63.20
29431;DHT22;16404;49.902;10.074;2022-12-29T01:54:14;12.00;63.30
29431;DHT22;16404;49.902;10.074;2022-12-29T01:57:04;12.00;63.40
29431;DHT22;16404;49.902;10.074;2022-12-29T02:00:00;12.10;63.40
29431;DHT22;16404;49.902;10.074;2022-12-29T02:02:49;12.10;63.40
29431;DHT22;16404;49.902;10.074;2022-12-29T02:08:43;12.20;63.40
29431;DHT22;16404;49.902;10.074;2022-12-29T02:11:31;12.20;63.30
29431;DHT22;16404;49.902;10.074;2022-12-29T02:14:16;12.20;63.20
29431;DHT22;16404;49.902;10.074;2022-12-29T02:23:18;12.10;63.30
29431;DHT22;16404;49.902;10.074;2022-12-29T02:26:31;12.10;63.50
29431;DHT22;16404;49.902;10.074;2022-12-29T02:32:34;12.00;64.50
29431;DHT22;16404;49.902;10.074;2022-12-29T02:35:43;12.10;64.50
29431;DHT22;16404;49.902;10.074;2022-12-29T02:45:28;12.20;64.70
29431;DHT22;16404;49.902;10.074;2022-12-29T02:48:21;12.20;65.00
29431;DHT22;16404;49.902;10.074;2022-12-29T02:51:21;12.30;64.80
29431;DHT22;16404;49.902;10.074;2022-12-29T02:54:08;12.20;65.30
29431;DHT22;16404;49.902;10.074;2022-12-29T03:03:14;12.10;67.00
29431;DHT22;16404;49.902;10.074;2022-12-29T03:06:13;12.00;67.50
29431;DHT22;16404;49.902;10.074;2022-12-29T03:15:14;12.10;68.60
29431;DHT22;16404;49.902;10.074;2022-12-29T03:24:00;12.10;69.40
29431;DHT22;16404;49.902;10.074;2022-12-29T03:26:47;12.20;69.60
29431;DHT22;16404;49.902;10.074;2022-12-29T03:29:41;12.20;70.00
29431;DHT22;16404;49.902;10.074;2022-12-29T03:32:33;12.20;70.30
29431;DHT22;16404;49.902;10.074;2022-12-29T03:35:23;12.20;70.30
29431;DHT22;16404;49.902;10.074;2022-12-29T03:41:17;12.30;70.70
29431;DHT22;16404;49.902;10.074;2022-12-29T03:44:05;12.30;70.50
29431;DHT22;16404;49.902;10.074;2022-12-29T03:46:50;12.40;70.60
29431;DHT22;16404;49.902;10.074;2022-12-29T03:49:34;12.40;70.50
29431;DHT22;16404;49.902;10.074;2022-12-29T03:52:21;12.50;70.40
29431;DHT22;16404;49.902;10.074;2022-12-29T03:55:08;12.40;70.20
29431;DHT22;16404;49.902;10.074;2022-12-29T03:57:52;12.30;70.70
29431;DHT22;16404;49.902;10.074;2022-12-29T04:00:48;12.30;71.00
29431;DHT22;16404;49.902;10.074;2022-12-29T04:03:32;12.40;71.00
29431;DHT22;16404;49.902;10.074;2022-12-29T04:06:17;12.40;70.90
29431;DHT22;16404;49.902;10.074;2022-12-29T04:09:07;12.50;70.80
29431;DHT22;16404;49.902;10.074;2022-12-29T04:11:56;12.50;70.70
29431;DHT22;16404;49.902;10.074;2022-12-29T04:14:41;12.50;70.70
29431;DHT22;16404;49.902;10.074;2022-12-29T04:17:25;12.50;70.70
29431;DHT22;16404;49.902;10.074;2022-12-29T04:20:11;12.40;71.00
29431;DHT22;16404;49.902;10.074;2022-12-29T04:23:16;12.40;71.20
29431;DHT22;16404;49.902;10.074;2022-12-29T04:26:01;12.50;71.20
29431;DHT22;16404;49.902;10.074;2022-12-29T04:28:47;12.50;71.10
29431;DHT22;16404;49.902;10.074;2022-12-29T04:31:58;12.60;71.20
29431;DHT22;16404;49.902;10.074;2022-12-29T04:34:43;12.70;70.90
29431;DHT22;16404;49.902;10.074;2022-12-29T04:37:27;12.70;70.60
29431;DHT22;16404;49.902;10.074;2022-12-29T04:40:13;12.70;70.60
29431;DHT22;16404;49.902;10.074;2022-12-29T04:42:57;12.70;70.50
29431;DHT22;16404;49.902;10.074;2022-12-29T04:45:46;12.70;70.50
29431;DHT22;16404;49.902;10.074;2022-12-29T04:48:44;12.70;70.70
29431;DHT22;16404;49.902;10.074;2022-12-29T04:51:56;12.80;70.40
29431;DHT22;16404;49.902;10.074;2022-12-29T04:54:42;12.80;70.20
29431;DHT22;16404;49.902;10.074;2022-12-29T04:57:34;12.80;70.10
29431;DHT22;16404;49.902;10.074;2022-12-29T05:00:19;12.90;70.00
29431;DHT22;16404;49.902;10.074;2022-12-29T05:03:05;12.90;69.80
29431;DHT22;16404;49.902;10.074;2022-12-29T05:05:53;13.00;69.50
29431;DHT22;16404;49.902;10.074;2022-12-29T05:08:39;12.90;69.50
29431;DHT22;16404;49.902;10.074;2022-12-29T05:11:24;12.90;69.50
29431;DHT22;16404;49.902;10.074;2022-12-29T05:14:09;12.90;69.40
29431;DHT22;16404;49.902;10.074;2022-12-29T05:16:54;12.90;69.40
29431;DHT22;16404;49.902;10.074;2022-12-29T05:19:39;12.90;69.20
29431;DHT22;16404;49.902;10.074;2022-12-29T05:22:24;13.00;69.20
29431;DHT22;16404;49.902;10.074;2022-12-29T05:25:10;13.10;69.00
29431;DHT22;16404;49.902;10.074;2022-12-29T05:28:08;13.10;68.60
29431;DHT22;16404;49.902;10.074;2022-12-29T05:31:13;13.10;68.60
29431;DHT22;16404;49.902;10.074;2022-12-29T05:33:58;13.00;68.60
29431;DHT22;16404;49.902;10.074;2022-12-29T05:36:43;12.90;68.60
29431;DHT22;16404;49.902;10.074;2022-12-29T05:39:28;13.00;68.80
29431;DHT22;16404;49.902;10.074;2022-12-29T05:42:17;13.00;68.40
29431;DHT22;16404;49.902;10.074;2022-12-29T05:45:20;13.00;68.30
29431;DHT22;16404;49.902;10.074;2022-12-29T05:48:21;13.00;68.20
29431;DHT22;16404;49.902;10.074;2022-12-29T05:51:26;13.10;68.20
29431;DHT22;16404;49.902;10.074;2022-12-29T05:54:12;13.10;68.00
29431;DHT22;16404;49.902;10.074;2022-12-29T05:56:58;13.00;68.00
29431;DHT22;16404;49.902;10.074;2022-12-29T05:59:42;13.00;68.00
29431;DHT22;16404;49.902;10.074;2022-12-29T06:02:28;13.00;68.00
29431;DHT22;16404;49.902;10.074;2022-12-29T06:05:12;13.00;67.80
29431;DHT22;16404;49.902;10.074;2022-12-29T06:07:58;13.00;67.70
29431;DHT22;16404;49.902;10.074;2022-12-29T06:10:42;13.20;67.60
29431;DHT22;16404;49.902;10.074;2022-12-29T06:13:27;13.20;67.10
29431;DHT22;16404;49.902;10.074;2022-12-29T06:16:12;13.20;66.90
29431;DHT22;16404;49.902;10.074;2022-12-29T06:18:57;13.20;66.60
29431;DHT22;16404;49.902;10.074;2022-12-29T06:21:42;13.20;66.40
29431;DHT22;16404;49.902;10.074;2022-12-29T06:24:27;13.20;66.30
29431;DHT22;16404;49.902;10.074;2022-12-29T06:27:12;13.20;66.20
29431;DHT22;16404;49.902;10.074;2022-12-29T06:29:57;13.10;66.50
29431;DHT22;16404;49.902;10.074;2022-12-29T06:32:42;13.00;66.70
29431;DHT22;16404;49.902;10.074;2022-12-29T06:35:29;13.00;66.70
29431;DHT22;16404;49.902;10.074;2022-12-29T06:38:14;12.90;67.10
29431;DHT22;16404;49.902;10.074;2022-12-29T06:40:59;12.80;67.20
29431;DHT22;16404;49.902;10.074;2022-12-29T06:43:53;13.00;67.20
29431;DHT22;16404;49.902;10.074;2022-12-29T06:46:42;13.10;66.60
29431;DHT22;16404;49.902;10.074;2022-12-29T06:49:26;13.10;66.50
29431;DHT22;16404;49.902;10.074;2022-12-29T06:52:11;13.10;66.10
29431;DHT22;16404;49.902;10.074;2022-12-29T06:54:56;13.10;65.80
29431;DHT22;16404;49.902;10.074;2022-12-29T06:57:40;13.20;65.60
29431;DHT22;16404;49.902;10.074;2022-12-29T07:00:25;13.20;65.60
29431;DHT22;16404;49.902;10.074;2022-12-29T07:03:09;13.00;65.70
29431;DHT22;16404;49.902;10.074;2022-12-29T07:05:54;13.00;66.00
29431;DHT22;16404;49.902;10.074;2022-12-29T07:08:38;12.90;66.10
29431;DHT22;16404;49.902;10.074;2022-12-29T07:11:23;13.00;66.10
29431;DHT22;16404;49.902;10.074;2022-12-29T07:14:08;13.00;65.90
29431;DHT22;16404;49.902;10.074;2022-12-29T07:16:52;13.00;65.90
29431;DHT22;16404;49.902;10.074;2022-12-29T07:19:37;13.10;65.90
29431;DHT22;16404;49.902;10.074;2022-12-29T07:22:22;13.20;65.70
29431;DHT22;16404;49.902;10.074;2022-12-29T07:25:07;13.30;65.50
29431;DHT22;16404;49.902;10.074;2022-12-29T07:27:51;13.30;65.30
29431;DHT22;16404;49.902;10.074;2022-12-29T07:30:37;13.40;65.40
29431;DHT22;16404;49.902;10.074;2022-12-29T07:33:22;13.40;65.20
29431;DHT22;16404;49.902;10.074;2022-12-29T07:36:07;13.40;65.00
29431;DHT22;16404;49.902;10.074;2022-12-29T07:38:52;13.40;64.90
29431;DHT22;16404;49.902;10.074;2022-12-29T07:41:36;13.40;65.00
29431;DHT22;16404;49.902;10.074;2022-12-29T07:44:21;13.40;64.90
29431;DHT22;16404;49.902;10.074;2022-12-29T07:47:16;13.50;64.60
29431;DHT22;16404;49.902;10.074;2022-12-29T07:50:01;13.50;64.30
29431;DHT22;16404;49.902;10.074;2022-12-29T07:52:45;13.60;64.20
29431;DHT22;16404;49.902;10.074;2022-12-29T07:55:31;13.60;64.10
29431;DHT22;16404;49.902;10.074;2022-12-29T07:58:16;13.60;63.80
29431;DHT22;16404;49.902;10.074;2022-12-29T08:01:01;13.60;63.70
29431;DHT22;16404;49.902;10.074;2022-12-29T08:03:45;13.70;63.80
29431;DHT22;16404;49.902;10.074;2022-12-29T08:06:30;13.80;63.60
29431;DHT22;16404;49.902;10.074;2022-12-29T08:09:15;13.80;63.50
29431;DHT22;16404;49.902;10.074;2022-12-29T08:11:59;13.80;63.50
29431;DHT22;16404;49.902;10.074;2022-12-29T08:14:44;13.80;63.40
29431;DHT22;16404;49.902;10.074;2022-12-29T08:17:29;13.80;63.20
29431;DHT22;16404;49.902;10.074;2022-12-29T08:20:13;13.90;63.20
29431;DHT22;16404;49.902;10.074;2022-12-29T08:22:58;13.90;63.20
29431;DHT22;16404;49.902;10.074;2022-12-29T08:25:42;13.90;63.10
29431;DHT22;16404;49.902;10.074;2022-12-29T08:28:27;13.90;62.90
29431;DHT22;16404;49.902;10.074;2022-12-29T08:31:12;13.90;62.90
29431;DHT22;16404;49.902;10.074;2022-12-29T08:33:56;13.90;62.90
29431;DHT22;16404;49.902;10.074;2022-12-29T08:36:41;13.90;62.90
29431;DHT22;16404;49.902;10.074;2022-12-29T08:39:25;13.90;63.10
29431;DHT22;16404;49.902;10.074;2022-12-29T08:42:10;13.90;63.10
29431;DHT22;16404;49.902;10.074;2022-12-29T08:44:55;13.90;63.20
29431;DHT22;16404;49.902;10.074;2022-12-29T08:47:39;13.90;63.40
29431;DHT22;16404;49.902;10.074;2022-12-29T08:50:24;13.90;63.50
29431;DHT22;16404;49.902;10.074;2022-12-29T08:53:09;14.00;63.50
29431;DHT22;16404;49.902;10.074;2022-12-29T08:55:59;14.00;63.40
29431;DHT22;16404;49.902;10.074;2022-12-29T08:58:44;14.00;63.20
29431;DHT22;16404;49.902;10.074;2022-12-29T09:01:28;14.10;63.20
29431;DHT22;16404;49.902;10.074;2022-12-29T09:04:14;14.20;63.10
29431;DHT22;16404;49.902;10.074;2022-12-29T09:06:58;14.20;63.00
29431;DHT22;16404;49.902;10.074;2022-12-29T09:09:43;14.20;62.90
29431;DHT22;16404;49.902;10.074;2022-12-29T09:12:28;14.30;62.90
29431;DHT22;16404;49.902;10.074;2022-12-29T09:15:12;14.30;62.80
29431;DHT22;16404;49.902;10.074;2022-12-29T09:17:57;14.30;62.70
29431;DHT22;16404;49.902;10.074;2022-12-29T09:20:42;14.30;62.70
29431;DHT22;16404;49.902;10.074;2022-12-29T09:23:27;14.30;62.60
29431;DHT22;16404;49.902;10.074;2022-12-29T09:26:11;14.30;63.30
29431;DHT22;16404;49.902;10.074;2022-12-29T09:28:56;14.40;62.70
29431;DHT22;16404;49.902;10.074;2022-12-29T09:31:40;14.40;62.30
29431;DHT22;16404;49.902;10.074;2022-12-29T09:34:25;14.40;62.40
29431;DHT22;16404;49.902;10.074;2022-12-29T09:37:10;14.50;62.60
29431;DHT22;16404;49.902;10.074;2022-12-29T09:39:54;14.50;62.40
29431;DHT22;16404;49.902;10.074;2022-12-29T09:43:01;14.50;62.20
29431;DHT22;16404;49.902;10.074;2022-12-29T09:52:05;14.60;61.90
29431;DHT22;16404;49.902;10.074;2022-12-29T09:55:14;14.60;62.10
29431;DHT22;16404;49.902;10.074;2022-12-29T09:58:10;14.40;61.80
29431;DHT22;16404;49.902;10.074;2022-12-29T10:01:04;14.30;62.00
29431;DHT22;16404;49.902;10.074;2022-12-29T10:03:51;14.20;62.30
29431;DHT22;16404;49.902;10.074;2022-12-29T10:06:56;14.10;62.60
29431;DHT22;16404;49.902;10.074;2022-12-29T10:09:58;14.00;63.10
29431;DHT22;16404;49.902;10.074;2022-12-29T10:13:20;13.90;63.20
29431;DHT22;16404;49.902;10.074;2022-12-29T10:16:10;13.90;63.20
29431;DHT22;16404;49.902;10.074;2022-12-29T10:22:09;14.00;63.20
29431;DHT22;16404;49.902;10.074;2022-12-29T10:24:58;14.10;63.50
29431;DHT22;16404;49.902;10.074;2022-12-29T10:27:48;14.20;63.40
29431;DHT22;16404;49.902;10.074;2022-12-29T10:30:33;14.30;62.90
29431;DHT22;16404;49.902;10.074;2022-12-29T10:33:23;14.30;63.00
29431;DHT22;16404;49.902;10.074;2022-12-29T10:36:20;14.40;63.30
29431;DHT22;16404;49.902;10.074;2022-12-29T10:42:14;14.50;63.00
29431;DHT22;16404;49.902;10.074;2022-12-29T10:45:00;14.60;63.00
29431;DHT22;16404;49.902;10.074;2022-12-29T10:47:55;14.70;62.70
29431;DHT22;16404;49.902;10.074;2022-12-29T10:50:41;14.70;62.40
29431;DHT22;16404;49.902;10.074;2022-12-29T10:54:15;14.90;61.90
29431;DHT22;16404;49.902;10.074;2022-12-29T10:56:50;15.00;61.80
29431;DHT22;16404;49.902;10.074;2022-12-29T10:59:36;15.10;61.70
29431;DHT22;16404;49.902;10.074;2022-12-29T11:08:30;15.20;61.80
29431;DHT22;16404;49.902;10.074;2022-12-29T11:11:24;15.20;61.40
29431;DHT22;16404;49.902;10.074;2022-12-29T11:14:18;15.10;61.40
29431;DHT22;16404;49.902;10.074;2022-12-29T11:17:03;15.10;61.50
29431;DHT22;16404;49.902;10.074;2022-12-29T11:19:48;15.20;61.60
29431;DHT22;16404;49.902;10.074;2022-12-29T11:22:33;15.10;61.50
29431;DHT22;16404;49.902;10.074;2022-12-29T11:25:18;15.10;61.40
29431;DHT22;16404;49.902;10.074;2022-12-29T11:28:14;15.10;61.40
29431;DHT22;16404;49.902;10.074;2022-12-29T11:31:00;15.00;61.40
29431;DHT22;16404;49.902;10.074;2022-12-29T11:33:45;15.00;61.70
29431;DHT22;16404;49.902;10.074;2022-12-29T11:36:30;15.00;61.90
29431;DHT22;16404;49.902;10.074;2022-12-29T11:39:37;15.10;61.70
29431;DHT22;16404;49.902;10.074;2022-12-29T11:42:36;15.00;61.90
29431;DHT22;16404;49.902;10.074;2022-12-29T11:45:30;15.00;61.90
29431;DHT22;16404;49.902;10.074;2022-12-29T11:48:19;15.10;62.00
29431;DHT22;16404;49.902;10.074;2022-12-29T11:51:04;15.10;62.00
29431;DHT22;16404;49.902;10.074;2022-12-29T11:53:52;15.10;61.60
29431;DHT22;16404;49.902;10.074;2022-12-29T11:56:40;15.00;61.40
29431;DHT22;16404;49.902;10.074;2022-12-29T12:05:22;15.00;61.60
29431;DHT22;16404;49.902;10.074;2022-12-29T12:08:12;15.00;61.70
29431;DHT22;16404;49.902;10.074;2022-12-29T12:17:36;15.00;61.70
29431;DHT22;16404;49.902;10.074;2022-12-29T12:20:28;15.10;61.70
29431;DHT22;16404;49.902;10.074;2022-12-29T12:26:22;15.20;61.60
29431;DHT22;16404;49.902;10.074;2022-12-29T12:29:16;15.30;61.70
29431;DHT22;16404;49.902;10.074;2022-12-29T12:44:23;15.50;61.50
29431;DHT22;16404;49.902;10.074;2022-12-29T13:14:52;15.60;62.30
29431;DHT22;16404;49.902;10.074;2022-12-29T13:17:56;15.60;62.20
29431;DHT22;16404;49.902;10.074;2022-12-29T13:30:17;15.40;63.30
29431;DHT22;16404;49.902;10.074;2022-12-29T13:36:03;15.10;63.70
29431;DHT22;16404;49.902;10.074;2022-12-29T13:38:56;14.90;64.10
29431;DHT22;16404;49.902;10.074;2022-12-29T13:41:54;14.90;64.20
29431;DHT22;16404;49.902;10.074;2022-12-29T13:44:46;14.90;64.20
29431;DHT22;16404;49.902;10.074;2022-12-29T13:47:42;14.80;64.30
29431;DHT22;16404;49.902;10.074;2022-12-29T13:50:30;14.70;64.50
29431;DHT22;16404;49.902;10.074;2022-12-29T13:56:39;14.40;64.80
29431;DHT22;16404;49.902;10.074;2022-12-29T13:59:45;14.20;65.20
29431;DHT22;16404;49.902;10.074;2022-12-29T14:05:31;14.00;65.30
29431;DHT22;16404;49.902;10.074;2022-12-29T14:08:17;13.90;65.50
29431;DHT22;16404;49.902;10.074;2022-12-29T14:11:10;13.90;65.70
29431;DHT22;16404;49.902;10.074;2022-12-29T14:13:55;13.80;65.70
29431;DHT22;16404;49.902;10.074;2022-12-29T14:16:40;13.80;65.70
29431;DHT22;16404;49.902;10.074;2022-12-29T14:19:29;13.80;65.70
29431;DHT22;16404;49.902;10.074;2022-12-29T14:22:23;13.90;65.60
29431;DHT22;16404;49.902;10.074;2022-12-29T14:28:46;13.70;65.40
29431;DHT22;16404;49.902;10.074;2022-12-29T14:34:25;13.70;65.00
29431;DHT22;16404;49.902;10.074;2022-12-29T14:40:24;13.60;64.80
29431;DHT22;16404;49.902;10.074;2022-12-29T14:43:26;13.60;65.00
29431;DHT22;16404;49.902;10.074;2022-12-29T14:46:11;13.50;65.00
29431;DHT22;16404;49.902;10.074;2022-12-29T14:48:58;13.50;64.90
29431;DHT22;16404;49.902;10.074;2022-12-29T14:51:45;13.50;65.10
29431;DHT22;16404;49.902;10.074;2022-12-29T14:57:27;13.40;65.10
29431;DHT22;16404;49.902;10.074;2022-12-29T15:00:21;13.40;65.20
29431;DHT22;16404;49.902;10.074;2022-12-29T15:03:18;13.30;65.20
29431;DHT22;16404;49.902;10.074;2022-12-29T15:06:04;13.30;65.20
29431;DHT22;16404;49.902;10.074;2022-12-29T15:15:18;13.20;65.10
29431;DHT22;16404;49.902;10.074;2022-12-29T15:21:04;13.20;65.10
29431;DHT22;16404;49.902;10.074;2022-12-29T15:23:50;13.20;65.20
29431;DHT22;16404;49.902;10.074;2022-12-29T15:26:39;13.20;65.50
29431;DHT22;16404;49.902;10.074;2022-12-29T15:29:38;13.10;65.70
29431;DHT22;16404;49.902;10.074;2022-12-29T15:32:25;13.10;65.90
29431;DHT22;16404;49.902;10.074;2022-12-29T15:35:25;13.10;66.10
29431;DHT22;16404;49.902;10.074;2022-12-29T15:38:15;13.00;66.60
29431;DHT22;16404;49.902;10.074;2022-12-29T15:41:21;13.00;66.70
29431;DHT22;16404;49.902;10.074;2022-12-29T15:44:17;13.10;66.80
29431;DHT22;16404;49.902;10.074;2022-12-29T15:47:06;13.10;66.90
29431;DHT22;16404;49.902;10.074;2022-12-29T15:50:28;13.00;67.80
29431;DHT22;16404;49.902;10.074;2022-12-29T15:53:11;13.00;67.50
29431;DHT22;16404;49.902;10.074;2022-12-29T15:56:22;12.90;67.70
29431;DHT22;16404;49.902;10.074;2022-12-29T16:02:09;12.80;68.90
29431;DHT22;16404;49.902;10.074;2022-12-29T16:04:54;12.70;68.90
29431;DHT22;16404;49.902;10.074;2022-12-29T16:07:38;12.70;69.50
29431;DHT22;16404;49.902;10.074;2022-12-29T16:10:40;12.70;69.80
29431;DHT22;16404;49.902;10.074;2022-12-29T16:13:48;12.60;70.00
29431;DHT22;16404;49.902;10.074;2022-12-29T16:16:36;12.70;69.90
29431;DHT22;16404;49.902;10.074;2022-12-29T16:19:33;12.70;69.90
29431;DHT22;16404;49.902;10.074;2022-12-29T16:25:19;12.60;70.30
29431;DHT22;16404;49.902;10.074;2022-12-29T16:28:17;12.50;70.30
29431;DHT22;16404;49.902;10.074;2022-12-29T16:31:05;12.40;70.50
29431;DHT22;16404;49.902;10.074;2022-12-29T16:33:54;12.50;70.20
29431;DHT22;16404;49.902;10.074;2022-12-29T16:36:54;12.60;70.30
29431;DHT22;16404;49.902;10.074;2022-12-29T16:39:40;12.70;70.20
29431;DHT22;16404;49.902;10.074;2022-12-29T16:48:36;12.70;69.50
29431;DHT22;16404;49.902;10.074;2022-12-29T16:51:33;12.70;69.50
29431;DHT22;16404;49.902;10.074;2022-12-29T16:54:28;12.50;69.80
29431;DHT22;16404;49.902;10.074;2022-12-29T16:57:14;12.30;70.10
29431;DHT22;16404;49.902;10.074;2022-12-29T17:00:01;12.20;70.10
29431;DHT22;16404;49.902;10.074;2022-12-29T17:03:01;12.10;70.40
29431;DHT22;16404;49.902;10.074;2022-12-29T17:05:46;12.00;70.70
29431;DHT22;16404;49.902;10.074;2022-12-29T17:08:39;12.00;71.40
29431;DHT22;16404;49.902;10.074;2022-12-29T17:11:34;12.10;70.80
29431;DHT22;16404;49.902;10.074;2022-12-29T17:20:28;12.00;70.40
29431;DHT22;16404;49.902;10.074;2022-12-29T17:23:17;12.00;70.40
29431;DHT22;16404;49.902;10.074;2022-12-29T17:26:01;12.00;70.40
29431;DHT22;16404;49.902;10.074;2022-12-29T17:28:46;12.10;70.10
29431;DHT22;16404;49.902;10.074;2022-12-29T17:31:31;12.20;69.90
29431;DHT22;16404;49.902;10.074;2022-12-29T17:34:16;12.30;69.40
29431;DHT22;16404;49.902;10.074;2022-12-29T17:41:01;12.50;68.80
29431;DHT22;16404;49.902;10.074;2022-12-29T17:43:48;12.50;68.30
29431;DHT22;16404;49.902;10.074;2022-12-29T17:46:34;12.50;68.10
29431;DHT22;16404;49.902;10.074;2022-12-29T17:49:19;12.50;68.10
29431;DHT22;16404;49.902;10.074;2022-12-29T17:52:04;12.50;68.10
29431;DHT22;16404;49.902;10.074;2022-12-29T17:54:50;12.50;68.30
29431;DHT22;16404;49.902;10.074;2022-12-29T17:57:35;12.60;68.20
29431;DHT22;16404;49.902;10.074;2022-12-29T18:00:28;12.60;67.80
29431;DHT22;16404;49.902;10.074;2022-12-29T18:03:15;12.50;68.00
29431;DHT22;16404;49.902;10.074;2022-12-29T18:06:01;12.60;67.90
29431;DHT22;16404;49.902;10.074;2022-12-29T18:08:46;12.50;67.80
29431;DHT22;16404;49.902;10.074;2022-12-29T18:11:30;12.40;67.90
29431;DHT22;16404;49.902;10.074;2022-12-29T18:14:16;12.40;67.90
29431;DHT22;16404;49.902;10.074;2022-12-29T18:17:00;12.30;68.00
29431;DHT22;16404;49.902;10.074;2022-12-29T18:19:45;12.30;68.10
29431;DHT22;16404;49.902;10.074;2022-12-29T18:22:29;12.30;68.20
29431;DHT22;16404;49.902;10.074;2022-12-29T18:25:37;12.20;68.30
29431;DHT22;16404;49.902;10.074;2022-12-29T18:29:21;12.20;68.40
29431;DHT22;16404;49.902;10.074;2022-12-29T18:32:11;12.10;68.20
29431;DHT22;16404;49.902;10.074;2022-12-29T18:34:55;12.10;68.60
29431;DHT22;16404;49.902;10.074;2022-12-29T18:37:40;12.00;68.60
29431;DHT22;16404;49.902;10.074;2022-12-29T18:40:25;12.00;68.80
29431;DHT22;16404;49.902;10.074;2022-12-29T18:43:16;11.90;69.10
29431;DHT22;16404;49.902;10.074;2022-12-29T18:46:01;11.90;69.20
29431;DHT22;16404;49.902;10.074;2022-12-29T18:48:46;11.80;69.50
29431;DHT22;16404;49.902;10.074;2022-12-29T18:51:31;11.70;69.80
29431;DHT22;16404;49.902;10.074;2022-12-29T18:54:29;11.70;70.00
29431;DHT22;16404;49.902;10.074;2022-12-29T18:57:14;11.60;70.20
29431;DHT22;16404;49.902;10.074;2022-12-29T18:59:59;11.60;70.10
29431;DHT22;16404;49.902;10.074;2022-12-29T19:02:45;11.60;70.30
29431;DHT22;16404;49.902;10.074;2022-12-29T19:05:35;11.50;70.30
29431;DHT22;16404;49.902;10.074;2022-12-29T19:08:20;11.50;70.50
29431;DHT22;16404;49.902;10.074;2022-12-29T19:11:05;11.50;70.40
29431;DHT22;16404;49.902;10.074;2022-12-29T19:13:49;11.50;70.50
29431;DHT22;16404;49.902;10.074;2022-12-29T19:16:34;11.50;70.50
29431;DHT22;16404;49.902;10.074;2022-12-29T19:19:18;11.60;70.30
29431;DHT22;16404;49.902;10.074;2022-12-29T19:22:03;11.60;70.20
29431;DHT22;16404;49.902;10.074;2022-12-29T19:24:47;11.60;70.30
29431;DHT22;16404;49.902;10.074;2022-12-29T19:27:32;11.70;70.00
29431;DHT22;16404;49.902;10.074;2022-12-29T19:30:18;11.80;69.80
29431;DHT22;16404;49.902;10.074;2022-12-29T19:33:02;11.90;69.60
29431;DHT22;16404;49.902;10.074;2022-12-29T19:35:48;11.80;69.40
29431;DHT22;16404;49.902;10.074;2022-12-29T19:38:33;11.90;69.50
29431;DHT22;16404;49.902;10.074;2022-12-29T19:41:18;11.90;69.40
29431;DHT22;16404;49.902;10.074;2022-12-29T19:44:02;11.90;69.50
29431;DHT22;16404;49.902;10.074;2022-12-29T19:46:47;11.90;69.50
29431;DHT22;16404;49.902;10.074;2022-12-29T19:49:32;11.90;69.50
29431;DHT22;16404;49.902;10.074;2022-12-29T19:52:17;11.90;69.50
29431;DHT22;16404;49.902;10.074;2022-12-29T19:55:02;11.90;69.80
29431;DHT22;16404;49.902;10.074;2022-12-29T19:57:47;11.90;69.80
29431;DHT22;16404;49.902;10.074;2022-12-29T20:00:31;12.00;69.50
29431;DHT22;16404;49.902;10.074;2022-12-29T20:03:16;12.00;69.20
29431;DHT22;16404;49.902;10.074;2022-12-29T20:06:02;12.00;69.40
29431;DHT22;16404;49.902;10.074;2022-12-29T20:08:46;11.90;69.80
29431;DHT22;16404;49.902;10.074;2022-12-29T20:11:31;11.90;70.10
29431;DHT22;16404;49.902;10.074;2022-12-29T20:14:16;11.80;70.30
29431;DHT22;16404;49.902;10.074;2022-12-29T20:17:01;11.80;70.70
29431;DHT22;16404;49.902;10.074;2022-12-29T20:19:45;11.90;70.50
29431;DHT22;16404;49.902;10.074;2022-12-29T20:22:30;11.90;70.10
29431;DHT22;16404;49.902;10.074;2022-12-29T20:25:15;11.90;70.20
29431;DHT22;16404;49.902;10.074;2022-12-29T20:27:59;11.90;70.30